createdAt,value
2022-07-28T00:00:47.569Z,101677.59
2022-07-28T00:05:50.238Z,101678.16
2022-07-28T00:10:52.965Z,101632.03
2022-07-28T00:15:56.998Z,101673.59
2022-07-28T00:20:59.869Z,101677.59
2022-07-28T00:26:03.210Z,101609.16
2022-07-28T00:31:09.474Z,101663.63
2022-07-28T00:36:13.456Z,101668.72
2022-07-28T00:41:20.731Z,101642.50
2022-07-28T00:46:25.339Z,101600.38
2022-07-28T00:51:29.513Z,101658.84
2022-07-28T00:56:33.192Z,101661.66
2022-07-28T01:01:37.691Z,101645.63
2022-07-28T01:06:59.755Z,101636.34
2022-07-28T01:12:11.993Z,101643.56
2022-07-28T01:17:27.965Z,101649.34
2022-07-28T01:22:36.084Z,101649.41
2022-07-28T01:27:52.094Z,101621.00
2022-07-28T01:33:02.061Z,101644.44
2022-07-28T01:38:08.363Z,101647.81
2022-07-28T01:43:15.400Z,101635.84
2022-07-28T01:48:22.025Z,101640.19
2022-07-28T01:53:27.202Z,101627.69
2022-07-28T01:58:31.690Z,101624.44
2022-07-28T02:03:38.041Z,101605.84
2022-07-28T02:08:42.598Z,101570.53
2022-07-28T02:13:48.132Z,101622.25
2022-07-28T02:18:54.777Z,101596.09
2022-07-28T02:23:59.531Z,101611.16
2022-07-28T02:29:04.232Z,101596.31
2022-07-28T02:34:11.947Z,101558.63
2022-07-28T02:39:21.570Z,101590.59
2022-07-28T02:44:29.363Z,101596.28
2022-07-28T02:49:36.214Z,101570.56
2022-07-28T02:54:41.494Z,101571.00
2022-07-28T02:59:45.861Z,101602.53
2022-07-28T03:05:01.589Z,101594.84
2022-07-28T03:10:05.984Z,101594.06
2022-07-28T03:15:10.164Z,101597.38
2022-07-28T03:20:15.469Z,101576.84
2022-07-28T03:25:22.552Z,101573.91
2022-07-28T03:30:30.373Z,101582.19
2022-07-28T03:35:36.510Z,101560.03
2022-07-28T03:40:40.465Z,101532.28
2022-07-28T03:45:49.326Z,101518.19
2022-07-28T03:50:53.405Z,101596.53
2022-07-28T03:55:57.687Z,101582.06
2022-07-28T04:01:02.862Z,101603.06
2022-07-28T04:06:07.041Z,101597.53
2022-07-28T04:11:09.777Z,101519.06
2022-07-28T04:16:12.472Z,101601.38
2022-07-28T04:21:17.117Z,101585.88
2022-07-28T04:26:19.959Z,101573.81
2022-07-28T04:31:22.708Z,101589.00
2022-07-28T04:36:27.307Z,101585.63
2022-07-28T04:41:30.220Z,101541.63
2022-07-28T04:46:34.724Z,101587.81
2022-07-28T04:51:38.797Z,101590.59
2022-07-28T04:56:41.611Z,101588.06
2022-07-28T05:01:44.384Z,101589.41
2022-07-28T05:06:48.570Z,101597.53
2022-07-28T05:11:51.252Z,101591.97
2022-07-28T05:16:54.108Z,101589.03
2022-07-28T05:21:58.281Z,101584.63
2022-07-28T05:27:01.075Z,101562.31
2022-07-28T05:32:17.187Z,101555.97
2022-07-28T05:37:21.840Z,101592.56
2022-07-28T05:42:26.479Z,101588.91
2022-07-28T05:47:29.127Z,101518.03
2022-07-28T05:52:33.278Z,101590.47
2022-07-28T05:57:36.800Z,101591.06
2022-07-28T06:02:39.526Z,101582.78
2022-07-28T06:07:44.477Z,101582.25
2022-07-28T06:12:48.776Z,101595.97
2022-07-28T06:17:53.234Z,101544.72
2022-07-28T06:22:57.685Z,101559.22
2022-07-28T06:28:02.707Z,101581.06
2022-07-28T06:33:05.789Z,101591.59
2022-07-28T06:38:10.113Z,101593.91
2022-07-28T06:43:14.604Z,101599.41
2022-07-28T06:48:18.777Z,101599.34
2022-07-28T06:53:23.266Z,101585.22
2022-07-28T06:58:25.964Z,101591.50
2022-07-28T07:03:28.660Z,101565.97
2022-07-28T07:08:33.080Z,101593.50
2022-07-28T07:13:36.914Z,101593.53
2022-07-28T07:18:39.636Z,101594.47
2022-07-28T07:23:43.595Z,101584.22
2022-07-28T07:28:47.987Z,101584.91
2022-07-28T07:33:50.669Z,101556.41
2022-07-28T07:38:54.697Z,101578.13
2022-07-28T07:43:57.421Z,101566.75
2022-07-28T07:49:00.222Z,101571.31
2022-07-28T07:54:04.695Z,101571.44
2022-07-28T07:59:07.894Z,101562.59
2022-07-28T08:04:10.723Z,101563.75
2022-07-28T08:09:15.393Z,101562.81
2022-07-28T08:14:18.494Z,101566.41
2022-07-28T08:19:21.915Z,101567.56
2022-07-28T08:24:32.929Z,101569.16
2022-07-28T08:29:36.869Z,101524.53
2022-07-28T08:34:39.672Z,101561.63
2022-07-28T08:39:43.969Z,101559.13
2022-07-28T08:44:53.239Z,101558.84
2022-07-28T08:49:59.402Z,101505.81
2022-07-28T08:55:06.548Z,101558.13
2022-07-28T09:00:10.545Z,101559.69
2022-07-28T09:05:13.561Z,101550.06
2022-07-28T09:10:18.867Z,101548.63
2022-07-28T09:15:21.928Z,101535.44
2022-07-28T09:20:25.566Z,101470.72
2022-07-28T09:25:31.009Z,101533.59
2022-07-28T09:30:36.467Z,101527.06
2022-07-28T09:35:44.205Z,101470.41
2022-07-28T09:40:59.273Z,101531.56
2022-07-28T09:46:10.179Z,101504.69
2022-07-28T09:51:14.769Z,101476.47
2022-07-28T09:56:18.783Z,101522.78
2022-07-28T10:01:22.409Z,101517.34
2022-07-28T10:06:30.994Z,101522.13
2022-07-28T10:11:40.944Z,101452.88
2022-07-28T10:16:47.038Z,101510.31
2022-07-28T10:21:55.512Z,101490.00
2022-07-28T10:27:02.918Z,101501.03
2022-07-28T10:32:08.177Z,101367.56
2022-07-28T10:37:18.307Z,101490.13
2022-07-28T10:42:22.898Z,101482.19
2022-07-28T10:47:26.646Z,101431.44
2022-07-28T10:52:50.676Z,101404.97
2022-07-28T10:58:11.507Z,101484.09
2022-07-28T11:03:37.743Z,101432.13
2022-07-28T11:08:40.540Z,101474.59
2022-07-28T11:13:44.730Z,101467.09
2022-07-28T11:19:07.660Z,101470.47
2022-07-28T11:25:18.618Z,101456.47
2022-07-28T11:30:53.745Z,101463.13
2022-07-28T11:35:59.200Z,101407.66
2022-07-28T11:41:01.821Z,101442.03
2022-07-28T11:46:37.651Z,101342.34
2022-07-28T11:51:52.392Z,101426.03
2022-07-28T11:56:59.272Z,101396.97
2022-07-28T12:02:03.434Z,101416.13
2022-07-28T12:07:09.675Z,101420.47
2022-07-28T12:12:13.283Z,101416.25
2022-07-28T12:17:18.524Z,101382.59
2022-07-28T12:22:21.248Z,101411.94
2022-07-28T12:27:38.488Z,101419.53
2022-07-28T12:32:45.369Z,101409.22
2022-07-28T12:37:50.671Z,101399.56
2022-07-28T12:42:56.937Z,101398.47
2022-07-28T12:48:08.114Z,101398.84
2022-07-28T12:53:12.520Z,101379.88
2022-07-28T12:58:24.497Z,101346.63
2022-07-28T13:03:29.945Z,101384.34
2022-07-28T13:08:44.112Z,101383.31
2022-07-28T13:13:52.024Z,101363.81
2022-07-28T13:18:57.861Z,101383.75
2022-07-28T13:24:00.665Z,101383.69
2022-07-28T13:29:04.439Z,101330.94
2022-07-28T13:34:17.435Z,101338.72
2022-07-28T13:39:20.611Z,101355.78
2022-07-28T13:44:23.402Z,101357.22
2022-07-28T13:49:28.384Z,101337.84
2022-07-28T13:54:31.390Z,101355.72
2022-07-28T13:59:36.262Z,101349.72
2022-07-28T14:04:42.241Z,101352.44
2022-07-28T14:09:50.097Z,101347.47
2022-07-28T14:14:53.157Z,101320.81
2022-07-28T14:19:57.292Z,101348.31
2022-07-28T14:25:00.134Z,101348.91
2022-07-28T14:30:04.169Z,101340.22
2022-07-28T14:35:13.211Z,101321.66
2022-07-28T14:40:17.441Z,101337.03
2022-07-28T14:45:20.287Z,101328.75
2022-07-28T14:50:25.086Z,101327.91
2022-07-28T14:55:28.445Z,101337.50
2022-07-28T15:00:31.234Z,101339.53
2022-07-28T15:05:35.279Z,101348.69
2022-07-28T15:10:39.335Z,101304.19
2022-07-28T15:16:12.594Z,101331.78
2022-07-28T15:21:17.682Z,101307.22
2022-07-28T15:26:20.557Z,101331.53
2022-07-28T15:31:24.234Z,101319.25
2022-07-28T15:36:30.283Z,101315.09
2022-07-28T15:41:33.304Z,101314.91
2022-07-28T15:46:36.221Z,101309.78
2022-07-28T15:51:41.272Z,101301.94
2022-07-28T15:56:44.204Z,101296.44
2022-07-28T16:01:47.125Z,101298.81
2022-07-28T16:07:11.310Z,101291.25
2022-07-28T16:12:14.813Z,101297.22
2022-07-28T16:17:18.304Z,101292.16
2022-07-28T16:22:22.840Z,101295.03
2022-07-28T16:27:25.644Z,101294.03
2022-07-28T16:32:28.601Z,101286.28
2022-07-28T16:37:33.133Z,101291.47
2022-07-28T16:42:36.667Z,101286.72
2022-07-28T16:47:40.235Z,101281.38
2022-07-28T16:52:44.439Z,101283.75
2022-07-28T16:57:47.527Z,101288.84
2022-07-28T17:02:50.520Z,101290.56
2022-07-28T17:07:55.544Z,101291.22
2022-07-28T17:12:58.816Z,101289.53
2022-07-28T17:18:01.692Z,101293.75
2022-07-28T17:23:06.498Z,101292.41
2022-07-28T17:28:09.643Z,101287.34
2022-07-28T17:33:12.571Z,101274.38
2022-07-28T17:38:21.345Z,101239.28
2022-07-28T17:43:24.599Z,101286.00
2022-07-28T17:48:27.462Z,101286.72
2022-07-28T17:53:31.629Z,101289.25
2022-07-28T17:58:34.353Z,101289.28
2022-07-28T18:03:59.760Z,101286.56
2022-07-28T18:09:07.212Z,101293.31
2022-07-28T18:14:11.045Z,101283.22
2022-07-28T18:19:14.578Z,101276.47
2022-07-28T18:24:22.260Z,101290.97
2022-07-28T18:29:38.453Z,101286.91
2022-07-28T18:34:41.684Z,101284.53
2022-07-28T18:39:45.835Z,101279.63
2022-07-28T18:44:48.656Z,101269.31
2022-07-28T18:49:51.668Z,101275.41
2022-07-28T18:54:56.259Z,101264.41
2022-07-28T18:59:59.036Z,101270.31
2022-07-28T19:05:01.864Z,101270.28
2022-07-28T19:10:07.548Z,101270.94
2022-07-28T19:15:10.782Z,101277.84
2022-07-28T19:20:13.641Z,101279.19
2022-07-28T19:25:17.715Z,101295.00
2022-07-28T19:30:22.709Z,101290.09
2022-07-28T19:35:25.918Z,101293.81
2022-07-28T19:40:31.689Z,101308.97
2022-07-28T19:45:34.738Z,101291.31
2022-07-28T19:50:37.582Z,101315.59
2022-07-28T19:55:41.645Z,101316.66
2022-07-28T20:00:53.796Z,101331.13
2022-07-28T20:05:59.866Z,101339.84
2022-07-28T20:11:04.302Z,101343.03
2022-07-28T20:16:07.527Z,101346.19
2022-07-28T20:21:10.312Z,101347.88
2022-07-28T20:26:15.372Z,101354.63
2022-07-28T20:31:19.086Z,101351.56
2022-07-28T20:36:25.079Z,101353.06
2022-07-28T20:41:33.227Z,101355.28
2022-07-28T20:46:37.001Z,101350.34
2022-07-28T20:51:40.135Z,101350.19
2022-07-28T20:56:55.490Z,101342.56
2022-07-28T21:01:58.894Z,101359.28
2022-07-28T21:07:04.156Z,101346.81
2022-07-28T21:12:09.507Z,101346.28
2022-07-28T21:17:12.406Z,101343.22
2022-07-28T21:22:16.274Z,101339.66
2022-07-28T21:27:21.341Z,101327.09
2022-07-28T21:32:24.248Z,101350.34
2022-07-28T21:37:27.346Z,101346.13
2022-07-28T21:42:31.550Z,101330.44
2022-07-28T21:47:35.377Z,101329.75
2022-07-28T21:52:41.235Z,101339.84
2022-07-28T21:57:46.485Z,101343.81
2022-07-28T22:02:49.543Z,101339.84
2022-07-28T22:07:52.753Z,101340.13
2022-07-28T22:12:59.472Z,101334.50
2022-07-28T22:18:02.189Z,101342.03
2022-07-28T22:23:05.141Z,101341.69
2022-07-28T22:28:30.712Z,101342.13
2022-07-28T22:33:33.668Z,101340.22
2022-07-28T22:38:36.466Z,101299.78
2022-07-28T22:43:40.952Z,101341.22
2022-07-28T22:48:44.597Z,101349.13
2022-07-28T22:53:47.415Z,101301.94
2022-07-28T22:58:51.401Z,101333.44
2022-07-28T23:03:54.039Z,101326.16
2022-07-28T23:08:56.973Z,101322.31
2022-07-28T23:14:01.024Z,101333.91
2022-07-28T23:19:03.900Z,101320.91
2022-07-28T23:24:07.381Z,101308.09
2022-07-28T23:29:11.392Z,101313.72
2022-07-28T23:34:14.435Z,101311.72
2022-07-28T23:39:17.247Z,101319.16
2022-07-28T23:44:21.145Z,101316.59
2022-07-28T23:49:24.150Z,101318.00
2022-07-28T23:54:26.758Z,101317.22
2022-07-28T23:59:32.156Z,101306.94
